This is the latest recevied weather packets stored in our database for station/object WX6HNX-14. If no packets are shown the sender has not sent any weather packets the latest 10 day(s).
| Time | Temp. | Humidity | Pressure | Rain* | Wind** | Luminosity | Snow |
|---|---|---|---|---|---|---|---|
| 1777607249 | 20.56° C | 48% | 1011.2 hPa | 0 mm | - | - | - |
| 1777606348 | 21.11° C | 47% | 1011 hPa | 0 mm | - | - | - |
| 1777605862 | 21.11° C | 48% | 1010.8 hPa | 0 mm | - | - | - |
| 1777605562 | 21.11° C | 49% | 1010.7 hPa | 0 mm | - | - | - |
| 1777604962 | 21.67° C | 49% | 1010.6 hPa | 0 mm | - | - | - |
| 1777604662 | 22.22° C | 48% | 1010.5 hPa | 0 mm | - | - | - |
| 1777604363 | 22.78° C | 48% | 1010.5 hPa | 0 mm | - | - | - |
| 1777604063 | 23.89° C | 47% | 1010.5 hPa | 0 mm | - | - | - |
| 1777603687 | 25° C | 44% | 1010.4 hPa | 0 mm | - | - | - |
| 1777603386 | 25.56° C | 42% | 1010.4 hPa | 0 mm | - | - | - |
| 1777602843 | 26.11° C | 38% | 1010.4 hPa | 0 mm | - | - | - |
| 1777602318 | 27.22° C | 37% | 1010.3 hPa | 0 mm | - | - | - |
| 1777602018 | 27.22° C | 34% | 1010.2 hPa | 0 mm | - | - | - |
| 1777601718 | 27.78° C | 33% | 1010.3 hPa | 0 mm | - | - | - |
| 1777600818 | 27.78° C | 32% | 1010.2 hPa | 0 mm | - | - | - |
| 1777600518 | 28.33° C | 30% | 1010.2 hPa | 0 mm | - | - | - |
| 1777600218 | 28.33° C | 30% | 1010.2 hPa | 0 mm | - | - | - |
| 1777599918 | 28.33° C | 30% | 1010.1 hPa | 0 mm | - | - | - |
| 1777599618 | 28.33° C | 30% | 1010.2 hPa | 0 mm | - | - | - |
| 1777599018 | 28.33° C | 30% | 1010.2 hPa | 0 mm | - | - | - |
| 1777598718 | 28.33° C | 30% | 1010.2 hPa | 0 mm | - | - | - |
| 1777597818 | 28.33° C | 30% | 1010.2 hPa | 0 mm | - | - | - |
| 1777597218 | 28.33° C | 30% | 1010.2 hPa | 0 mm | - | - | - |
| 1777596494 | 28.33° C | 30% | 1010.1 hPa | 0 mm | - | - | - |
| 1777596194 | 28.33° C | 30% | 1010.1 hPa | 0 mm | - | - | - |
* Rain latest hour (hover to see other rain measurements)
** Current wind speed in m/s (hover to see current wind gust speed)